Time;durP1;ratioP1;P1;durP2;ratioP2;P2;SDS_P1;SDS_P2;PMS_P1;PMS_P2;Temp;Humidity;BMP_temperature;BMP_pressure;BME280_temperature;BME280_humidity;BME280_pressure;Samples;Min_cycle;Max_cycle;Signal;HPM_P1;HPM_P2
2023/03/17 00:00:44;;;;;;;4.80;3.03;;;;;;;3.36;85.25;98129.66;5011290;28;20081;-82
2023/03/17 00:03:22;;;;;;;4.45;3.20;;;;;;;3.40;85.36;98129.19;5024873;28;20054;-82
2023/03/17 00:05:50;;;;;;;4.95;2.90;;;;;;;3.29;84.09;98106.13;5003091;28;20034;-81
2023/03/17 00:08:25;;;;;;;4.25;3.22;;;;;;;3.32;84.72;98117.97;5005424;28;20535;-82
2023/03/17 00:10:52;;;;;;;4.93;3.15;;;;;;;3.37;84.53;98126.91;5007983;28;20030;-82
2023/03/17 00:13:19;;;;;;;4.18;3.13;;;;;;;3.31;85.55;98116.34;5006279;28;20034;-82
2023/03/17 00:16:01;;;;;;;5.43;3.28;;;;;;;3.42;85.62;98129.88;5006245;28;20030;-82
2023/03/17 00:18:30;;;;;;;3.88;2.55;;;;;;;3.33;86.41;98114.41;5011961;28;20041;-82
2023/03/17 00:20:57;;;;;;;5.13;3.15;;;;;;;3.28;85.13;98114.88;5004213;28;20038;-82
2023/03/17 00:23:24;;;;;;;6.13;2.80;;;;;;;3.37;85.93;98108.78;5007337;28;20354;-83
2023/03/17 00:25:52;;;;;;;6.03;3.72;;;;;;;3.28;84.33;98098.50;5003225;28;20057;-83
2023/03/17 00:28:24;;;;;;;4.50;3.15;;;;;;;3.17;82.94;98108.16;5011756;28;20034;-83
2023/03/17 00:30:59;;;;;;;4.03;2.85;;;;;;;3.25;84.93;98117.78;5011315;28;20036;-83
2023/03/17 00:33:32;;;;;;;6.78;3.35;;;;;;;3.19;83.34;98121.78;5010372;28;20390;-82
2023/03/17 00:35:58;;;;;;;4.93;2.97;;;;;;;3.22;85.97;98105.09;4997000;28;20038;-83
2023/03/17 00:38:24;;;;;;;4.03;2.80;;;;;;;3.18;85.78;98098.63;5004716;28;20042;-83
2023/03/17 00:40:50;;;;;;;3.08;2.65;;;;;;;3.35;86.44;98102.91;5013631;28;20049;-83
2023/03/17 00:43:17;;;;;;;5.65;3.00;;;;;;;3.32;84.25;98105.81;5015148;28;20030;-83
2023/03/17 00:45:43;;;;;;;3.17;2.50;;;;;;;3.25;85.52;98091.84;5004413;28;20630;-83
2023/03/17 00:48:19;;;;;;;3.15;2.40;;;;;;;3.35;85.32;98084.75;5010236;28;20026;-83
2023/03/17 00:50:49;;;;;;;4.90;3.00;;;;;;;3.24;86.46;98061.72;5012500;28;20393;-83
2023/03/17 00:53:20;;;;;;;3.10;2.67;;;;;;;3.23;85.60;98075.63;5011116;28;20031;-93
2023/03/17 00:55:47;;;;;;;6.13;2.33;;;;;;;3.09;84.83;98047.69;5021098;28;20046;-93
2023/03/17 00:58:33;;;;;;;5.88;2.78;;;;;;;3.22;85.71;98071.41;5019309;28;20046;-93
2023/03/17 01:01:00;;;;;;;3.08;2.30;;;;;;;3.26;87.58;98041.63;5019709;28;20564;-92
2023/03/17 01:03:29;;;;;;;4.90;2.65;;;;;;;3.29;86.68;98064.63;5002295;28;20046;-93
2023/03/17 01:05:56;;;;;;;3.65;2.58;;;;;;;3.17;85.87;98055.50;4997968;28;20030;-83
2023/03/17 01:08:24;;;;;;;3.38;2.75;;;;;;;3.15;86.26;98044.50;4998424;28;20401;-83
2023/03/17 01:11:03;;;;;;;4.35;2.58;;;;;;;3.20;86.99;98030.09;4994423;28;20473;-83
2023/03/17 01:13:29;;;;;;;3.35;2.40;;;;;;;3.25;87.90;98040.00;5005322;28;20042;-83
2023/03/17 01:15:56;;;;;;;3.42;2.70;;;;;;;3.32;87.01;98053.16;5001175;28;20081;-83
2023/03/17 01:18:23;;;;;;;3.03;2.22;;;;;;;3.19;86.50;98032.84;5013824;28;20034;-84
2023/03/17 01:20:50;;;;;;;3.95;2.35;;;;;;;3.18;87.99;98028.66;5012381;28;20109;-83
2023/03/17 01:23:17;;;;;;;3.47;2.42;;;;;;;3.22;87.09;98038.53;5007313;28;20033;-83
2023/03/17 01:25:44;;;;;;;4.75;2.63;;;;;;;3.42;87.05;98062.47;5008000;28;20477;-82
2023/03/17 01:28:17;;;;;;;2.72;2.25;;;;;;;3.33;85.37;98053.00;5010169;28;20045;-83
2023/03/17 01:30:44;;;;;;;4.40;2.65;;;;;;;3.36;86.52;98047.53;4996585;28;20096;-83
2023/03/17 01:33:11;;;;;;;3.70;2.38;;;;;;;3.34;84.56;98041.66;5015121;28;20037;-84
2023/03/17 01:35:40;;;;;;;3.22;2.33;;;;;;;3.35;85.14;98042.47;5010796;28;20030;-83
2023/03/17 01:38:07;;;;;;;6.03;2.38;;;;;;;3.15;85.89;98031.53;5008856;28;20054;-83
2023/03/17 01:40:41;;;;;;;3.58;2.55;;;;;;;3.36;85.63;98049.28;5004767;28;20612;-83
2023/03/17 01:43:07;;;;;;;3.50;2.20;;;;;;;3.31;84.42;98046.38;5007902;28;20081;-95
2023/03/17 01:46:20;;;;;;;4.80;2.20;;;;;;;3.22;82.94;98037.72;5004186;28;20045;-91
2023/03/17 01:49:22;;;;;;;4.03;2.70;;;;;;;3.10;82.92;98044.13;5006372;28;20088;-95
2023/03/17 01:52:17;;;;;;;3.03;2.30;;;;;;;3.05;82.93;98036.81;5013314;28;20043;-94
2023/03/17 01:55:11;;;;;;;3.17;2.28;;;;;;;3.00;83.72;98035.63;5017002;28;20112;-94
2023/03/17 01:57:55;;;;;;;4.32;2.50;;;;;;;2.93;83.16;98041.44;4990453;28;20034;-93
2023/03/17 02:00:23;;;;;;;5.65;2.40;;;;;;;2.96;83.47;98032.56;5035695;28;20568;-95
2023/03/17 02:02:54;;;;;;;2.63;2.05;;;;;;;2.86;82.15;98030.06;4987013;28;20137;-95
2023/03/17 02:05:35;;;;;;;3.67;2.33;;;;;;;2.73;82.37;98013.31;4986924;28;20069;-95
2023/03/17 02:08:21;;;;;;;2.95;2.13;;;;;;;2.71;82.93;97994.53;5010049;28;20030;-96
2023/03/17 02:10:51;;;;;;;3.25;2.40;;;;;;;2.86;84.50;98004.16;5007337;28;20477;-95
2023/03/17 02:13:18;;;;;;;2.67;1.88;;;;;;;2.92;83.20;98016.50;5005222;28;20042;-94
2023/03/17 02:19:28;;;;;;;;;;;;;;;2.94;82.11;98014.59;5009739;28;20478;-94
2023/03/17 02:22:09;;;;;;;3.00;2.03;;;;;;;2.60;81.64;97985.22;4988642;28;19920;-94
2023/03/17 02:24:49;;;;;;;4.15;2.40;;;;;;;2.63;82.41;97983.13;4975548;28;20050;-93
2023/03/17 02:27:34;;;;;;;2.95;2.17;;;;;;;2.79;82.56;97984.22;5023771;28;20042;-93
2023/03/17 02:30:01;;;;;;;2.83;2.20;;;;;;;2.90;84.87;97976.97;5019762;28;20044;-92
2023/03/17 02:32:27;;;;;;;2.53;1.98;;;;;;;2.84;84.50;97972.41;4999566;28;20043;-91
2023/03/17 02:34:54;;;;;;;2.20;2.00;;;;;;;3.01;85.58;97993.25;4982879;28;20092;-92
2023/03/17 02:37:20;;;;;;;3.20;2.50;;;;;;;3.07;84.23;97998.63;5012787;28;20037;-84
2023/03/17 02:39:46;;;;;;;3.08;2.10;;;;;;;3.05;84.89;97987.56;4995340;28;20046;-84
2023/03/17 02:42:13;;;;;;;4.25;2.10;;;;;;;3.13;85.98;97994.59;5004739;28;20483;-84
2023/03/17 02:44:39;;;;;;;2.53;1.95;;;;;;;3.05;87.62;97984.19;5002725;28;20453;-84
2023/03/17 02:47:06;;;;;;;3.47;2.08;;;;;;;3.14;86.97;97998.81;5012098;28;20477;-84
2023/03/17 02:49:35;;;;;;;4.25;2.40;;;;;;;3.16;87.20;97997.69;4998147;28;20038;-84
2023/03/17 02:52:01;;;;;;;5.43;2.58;;;;;;;3.14;87.37;97998.81;5006057;28;20029;-83
2023/03/17 02:54:28;;;;;;;3.05;2.05;;;;;;;3.03;85.34;97975.75;5003622;28;20045;-83
2023/03/17 02:56:54;;;;;;;2.58;1.83;;;;;;;3.15;85.48;98000.44;5005204;28;20046;-83
2023/03/17 02:59:21;;;;;;;2.38;2.13;;;;;;;3.12;83.98;97985.19;4999548;28;20693;-83
2023/03/17 03:01:48;;;;;;;4.65;2.20;;;;;;;3.12;84.63;97986.00;5000991;28;20062;-83
2023/03/17 03:04:14;;;;;;;3.03;2.47;;;;;;;3.03;82.82;97981.75;5003041;28;20113;-84
2023/03/17 03:06:41;;;;;;;2.35;2.15;;;;;;;3.13;82.08;97997.19;5004742;28;20034;-83
2023/03/17 03:09:10;;;;;;;4.50;2.42;;;;;;;3.10;84.33;97992.31;5003458;28;20069;-82
2023/03/17 03:11:45;;;;;;;2.65;2.30;;;;;;;3.26;84.72;98001.94;5013751;28;20029;-82
2023/03/17 03:14:12;;;;;;;2.65;2.08;;;;;;;3.27;84.25;97998.38;5010627;28;20033;-83
2023/03/17 03:16:39;;;;;;;3.42;2.10;;;;;;;3.13;82.02;97981.66;5003839;28;20042;-83
2023/03/17 03:19:06;;;;;;;2.95;2.17;;;;;;;3.09;83.20;97975.13;5008717;28;20053;-84
2023/03/17 03:21:32;;;;;;;2.80;2.35;;;;;;;3.17;84.43;97982.94;5012329;28;20105;-82
2023/03/17 03:23:59;;;;;;;2.50;1.95;;;;;;;3.26;86.54;97976.84;5010834;28;20436;-83
2023/03/17 03:26:26;;;;;;;3.85;2.30;;;;;;;3.26;84.27;97986.38;5012064;28;20053;-83
2023/03/17 03:28:52;;;;;;;3.13;2.60;;;;;;;3.06;84.90;97970.25;5010366;28;20489;-83
2023/03/17 03:31:19;;;;;;;3.17;2.33;;;;;;;3.16;86.40;97981.31;5011817;28;20041;-84
2023/03/17 03:33:45;;;;;;;6.05;2.42;;;;;;;3.10;87.40;97971.56;5002923;28;20046;-84
2023/03/17 03:36:12;;;;;;;3.92;2.40;;;;;;;3.13;86.12;97971.28;4994059;28;20072;-84
2023/03/17 03:38:38;;;;;;;5.38;2.60;;;;;;;3.04;87.14;97961.81;4991314;28;20041;-84
2023/03/17 03:41:05;;;;;;;3.15;2.40;;;;;;;3.07;86.46;97971.91;5006839;28;20070;-84
2023/03/17 03:43:31;;;;;;;3.00;2.33;;;;;;;3.03;85.87;97986.94;4996642;28;20042;-82
2023/03/17 03:45:57;;;;;;;2.92;2.22;;;;;;;2.97;85.15;97977.19;5018601;28;20073;-83
2023/03/17 03:48:24;;;;;;;3.47;2.28;;;;;;;2.74;84.79;97960.53;5026454;28;20547;-84
2023/03/17 03:50:55;;;;;;;3.97;2.38;;;;;;;2.83;85.91;97970.00;5010325;28;20477;-83
2023/03/17 03:53:21;;;;;;;3.60;2.53;;;;;;;2.91;85.43;97978.59;5009661;28;20073;-84
2023/03/17 03:55:48;;;;;;;3.05;2.50;;;;;;;2.90;84.80;97986.53;5004883;28;20046;-83
2023/03/17 03:58:14;;;;;;;3.40;2.42;;;;;;;2.69;84.96;97977.34;4998065;28;20053;-84
2023/03/17 04:00:40;;;;;;;2.83;2.17;;;;;;;2.76;86.27;97985.34;5021651;28;20096;-84
2023/03/17 04:03:07;;;;;;;3.70;2.22;;;;;;;2.85;87.64;97987.00;5009619;28;20084;-83
2023/03/17 04:05:33;;;;;;;3.58;2.50;;;;;;;2.86;87.04;97967.88;5001244;28;20527;-83
2023/03/17 04:08:00;;;;;;;4.10;2.50;;;;;;;2.80;86.15;97962.50;5006309;28;20077;-83
2023/03/17 04:10:41;;;;;;;2.75;2.35;;;;;;;2.71;85.66;97956.50;5004602;28;20065;-83
2023/03/17 04:13:07;;;;;;;3.35;2.40;;;;;;;2.73;85.75;97948.56;5009706;28;20042;-83
2023/03/17 04:15:33;;;;;;;4.20;2.25;;;;;;;2.62;84.78;97947.03;5014905;28;20030;-83
2023/03/17 04:18:00;;;;;;;3.42;2.50;;;;;;;2.52;85.59;97941.97;5009604;28;20060;-84
2023/03/17 04:20:26;;;;;;;2.53;2.15;;;;;;;2.58;86.55;97941.38;5016137;28;20038;-83
2023/03/17 04:22:52;;;;;;;2.83;2.30;;;;;;;2.48;87.25;97942.44;5014992;28;20172;-83
2023/03/17 04:25:19;;;;;;;3.92;2.40;;;;;;;2.56;88.06;97939.88;5028075;28;20050;-84
2023/03/17 04:27:45;;;;;;;3.40;2.33;;;;;;;2.55;87.78;97930.50;5003952;28;20042;-84
2023/03/17 04:30:13;;;;;;;3.35;2.50;;;;;;;2.61;87.11;97948.81;5014764;28;20042;-83
2023/03/17 04:32:40;;;;;;;4.28;2.72;;;;;;;2.42;87.62;97936.88;5030031;28;20038;-84
2023/03/17 04:35:12;;;;;;;3.97;2.67;;;;;;;2.58;89.15;97946.53;4991597;28;20065;-83
2023/03/17 04:37:38;;;;;;;4.07;2.50;;;;;;;2.37;88.81;97928.75;5008989;28;20034;-84
2023/03/17 04:40:08;;;;;;;4.32;2.28;;;;;;;2.45;88.94;97935.75;5000228;28;20088;-83
2023/03/17 04:42:36;;;;;;;7.38;2.50;;;;;;;2.57;88.32;97950.06;5029015;28;20521;-84
2023/03/17 04:45:08;;;;;;;5.93;2.58;;;;;;;2.50;86.82;97932.72;5008954;28;20034;-84
2023/03/17 04:47:34;;;;;;;2.88;2.20;;;;;;;2.55;87.24;97930.50;5003231;28;20429;-83
2023/03/17 04:50:01;;;;;;;4.65;2.85;;;;;;;2.46;85.60;97939.16;5003764;28;20108;-83
2023/03/17 04:52:27;;;;;;;3.70;2.58;;;;;;;2.46;86.79;97932.22;5005027;28;20041;-83
2023/03/17 04:54:56;;;;;;;3.05;2.42;;;;;;;2.40;85.67;97933.66;5006906;28;20042;-83
2023/03/17 04:57:25;;;;;;;3.65;2.47;;;;;;;2.42;85.37;97947.25;4998396;28;20034;-84
2023/03/17 04:59:52;;;;;;;3.33;2.78;;;;;;;2.37;86.94;97927.94;5004501;28;20050;-83
2023/03/17 05:02:18;;;;;;;3.53;2.42;;;;;;;2.53;85.55;97958.31;5013969;28;20062;-83
2023/03/17 05:04:45;;;;;;;3.92;2.17;;;;;;;2.47;84.77;97962.31;5014564;28;20041;-84
2023/03/17 05:07:11;;;;;;;3.65;2.80;;;;;;;2.50;83.92;97963.78;5020453;28;20050;-84
2023/03/17 05:09:37;;;;;;;4.30;2.40;;;;;;;2.38;85.51;97955.44;5007326;28;20586;-84
2023/03/17 05:12:05;;;;;;;5.55;2.95;;;;;;;2.47;84.99;97951.16;5012004;28;20030;-83
2023/03/17 05:14:32;;;;;;;5.35;2.65;;;;;;;2.42;84.57;97949.81;5012220;28;20502;-83
2023/03/17 05:16:58;;;;;;;3.20;2.50;;;;;;;2.18;84.19;97903.06;5014390;28;20026;-83
2023/03/17 05:19:24;;;;;;;4.53;2.40;;;;;;;2.42;83.02;97947.25;5010236;28;20084;-83
2023/03/17 05:21:51;;;;;;;3.47;2.35;;;;;;;2.35;82.86;97950.59;5014442;28;20486;-83
2023/03/17 05:24:17;;;;;;;4.90;2.88;;;;;;;2.26;84.19;97947.13;5003720;28;20033;-83
2023/03/17 05:26:44;;;;;;;2.92;2.15;;;;;;;2.28;84.08;97929.69;5004683;28;20493;-84
2023/03/17 05:29:10;;;;;;;3.67;2.67;;;;;;;2.34;84.44;97921.31;5005300;28;20049;-83
2023/03/17 05:31:37;;;;;;;2.47;2.28;;;;;;;2.24;84.96;97915.41;5015280;28;20033;-84
2023/03/17 05:34:04;;;;;;;3.25;2.42;;;;;;;2.36;85.04;97926.34;5001757;28;20438;-83
2023/03/17 05:36:32;;;;;;;3.83;2.60;;;;;;;2.32;82.61;97936.16;4994221;28;20062;-83
2023/03/17 05:38:58;;;;;;;4.88;2.45;;;;;;;2.28;82.70;97945.22;5011785;28;20397;-84
2023/03/17 05:41:25;;;;;;;3.80;2.42;;;;;;;2.37;82.84;97954.66;4994341;28;20050;-83
2023/03/17 05:43:51;;;;;;;3.47;2.40;;;;;;;2.25;84.28;97942.91;5009075;28;20399;-84
2023/03/17 05:46:17;;;;;;;2.75;2.35;;;;;;;2.31;82.84;97957.84;5012862;28;20049;-84
2023/03/17 05:48:44;;;;;;;4.05;2.40;;;;;;;2.25;82.85;97944.69;5010820;28;20026;-83
2023/03/17 05:51:10;;;;;;;3.28;2.47;;;;;;;2.11;84.78;97922.75;5002674;28;20429;-83
2023/03/17 05:53:36;;;;;;;3.60;2.35;;;;;;;2.22;82.09;97943.22;4999522;28;20073;-84
2023/03/17 05:56:03;;;;;;;2.80;2.30;;;;;;;2.07;83.38;97945.53;5010235;28;20074;-83
2023/03/17 05:58:29;;;;;;;5.03;2.67;;;;;;;2.09;84.25;97927.25;5013175;28;20077;-83
2023/03/17 06:00:55;;;;;;;4.13;2.67;;;;;;;2.19;82.14;97947.88;5005360;28;20077;-83
2023/03/17 06:03:22;;;;;;;3.08;2.35;;;;;;;2.27;83.81;97943.56;5012870;28;20376;-83
2023/03/17 06:05:48;;;;;;;3.40;2.30;;;;;;;2.29;83.60;97933.88;5012493;28;20064;-83
2023/03/17 06:08:14;;;;;;;4.80;2.40;;;;;;;2.32;83.35;97928.41;5005203;28;20541;-83
2023/03/17 06:10:48;;;;;;;3.28;2.20;;;;;;;2.39;82.62;97937.19;5006173;28;20041;-83
2023/03/17 06:13:14;;;;;;;8.93;2.50;;;;;;;2.41;84.67;97919.75;4995916;28;20034;-83
2023/03/17 06:15:41;;;;;;;4.10;2.45;;;;;;;2.45;83.37;97909.88;5007693;28;20042;-83
2023/03/17 06:18:08;;;;;;;3.50;2.28;;;;;;;2.65;83.78;97936.38;5006538;28;20038;-83
2023/03/17 06:20:35;;;;;;;4.03;2.70;;;;;;;2.75;85.78;97931.88;5004002;28;20030;-83
2023/03/17 06:23:01;;;;;;;3.70;2.28;;;;;;;2.79;85.24;97922.84;5008815;28;20069;-83
2023/03/17 06:25:28;;;;;;;4.03;2.78;;;;;;;2.77;82.79;97909.25;4995738;28;20097;-83
2023/03/17 06:27:55;;;;;;;8.02;2.60;;;;;;;2.79;82.29;97901.31;5007098;28;20026;-84
2023/03/17 06:30:21;;;;;;;3.60;2.50;;;;;;;2.80;83.16;97893.38;5001073;28;20061;-84
2023/03/17 06:32:47;;;;;;;3.53;2.35;;;;;;;2.92;84.61;97896.53;5002463;28;20037;-84
2023/03/17 06:35:13;;;;;;;4.13;2.67;;;;;;;2.85;81.91;97901.50;5006104;28;20037;-83
2023/03/17 06:37:40;;;;;;;4.63;2.85;;;;;;;2.93;85.18;97903.31;4998250;28;20049;-83
2023/03/17 06:40:09;;;;;;;4.70;2.85;;;;;;;3.15;84.13;97909.72;5008596;28;20508;-83
2023/03/17 06:42:35;;;;;;;4.43;2.92;;;;;;;3.19;83.48;97918.81;5014083;28;20045;-83
2023/03/17 06:45:02;;;;;;;3.92;2.53;;;;;;;3.19;81.74;97911.03;5008884;28;20477;-83
2023/03/17 06:47:28;;;;;;;5.40;2.75;;;;;;;3.32;82.96;97923.56;5013203;28;20037;-83
2023/03/17 06:49:55;;;;;;;3.10;2.63;;;;;;;3.27;79.97;97929.19;5005755;28;20041;-92
2023/03/17 06:52:21;;;;;;;4.15;3.08;;;;;;;3.38;82.33;97941.06;4982740;28;20481;-91
2023/03/17 06:54:47;;;;;;;5.63;3.03;;;;;;;3.38;79.99;97934.09;5000310;28;20042;-91
2023/03/17 06:57:14;;;;;;;3.95;2.40;;;;;;;3.56;80.56;97936.56;4984705;28;20042;-91
2023/03/17 06:59:42;;;;;;;3.85;2.55;;;;;;;3.43;76.27;97911.09;5027964;28;20052;-92
2023/03/17 07:02:10;;;;;;;5.15;3.05;;;;;;;3.65;75.46;97939.97;5030502;28;20049;-92
2023/03/17 07:04:37;;;;;;;4.15;2.72;;;;;;;3.87;74.39;97948.94;5001462;28;20049;-91
2023/03/17 07:07:04;;;;;;;6.15;2.70;;;;;;;3.96;77.49;97942.81;5001390;28;20072;-90
2023/03/17 07:09:33;;;;;;;4.47;2.65;;;;;;;4.26;74.71;97959.53;5020260;28;20050;-91
2023/03/17 07:12:03;;;;;;;6.20;2.42;;;;;;;4.20;73.39;97942.81;5021875;28;20092;-93
2023/03/17 07:14:35;;;;;;;4.30;2.80;;;;;;;4.64;74.35;97970.19;5001585;28;20045;-93
2023/03/17 07:17:04;;;;;;;4.25;2.63;;;;;;;4.77;74.64;97979.09;5003595;28;20033;-93
2023/03/17 07:19:32;;;;;;;5.40;2.80;;;;;;;4.71;72.22;97960.75;5002945;28;20038;-93
2023/03/17 07:22:00;;;;;;;4.85;2.45;;;;;;;4.94;69.58;97972.06;5002168;28;20037;-91
2023/03/17 07:24:27;;;;;;;5.95;2.70;;;;;;;5.07;69.94;97969.75;5002027;28;20099;-93
2023/03/17 07:26:53;;;;;;;5.35;2.85;;;;;;;5.22;69.47;97948.28;5001852;28;20780;-92
2023/03/17 07:29:21;;;;;;;3.63;2.55;;;;;;;5.37;70.47;97944.75;5007499;28;20099;-94
2023/03/17 07:31:48;;;;;;;6.35;2.70;;;;;;;5.39;69.05;97942.00;5007462;28;20046;-92
2023/03/17 07:34:34;;;;;;;4.43;2.05;;;;;;;5.64;64.55;97951.31;5030779;28;20128;-93
2023/03/17 07:37:14;;;;;;;7.45;2.65;;;;;;;5.60;64.21;97924.00;5016272;28;20819;-92
2023/03/17 07:39:41;;;;;;;5.95;3.22;;;;;;;5.96;64.10;97941.69;5024173;28;20386;-83
2023/03/17 07:42:13;;;;;;;2.78;2.53;;;;;;;6.06;60.44;97933.66;5001766;28;20033;-83
2023/03/17 07:44:40;;;;;;;5.53;2.80;;;;;;;6.27;62.50;97940.78;5004429;28;20120;-83
2023/03/17 07:47:08;;;;;;;4.57;3.00;;;;;;;6.35;60.87;97927.69;5000577;28;20473;-83
2023/03/17 07:49:35;;;;;;;4.90;2.83;;;;;;;6.48;60.34;97912.28;5001489;28;20034;-91
2023/03/17 07:52:01;;;;;;;5.63;3.10;;;;;;;6.69;59.83;97920.19;4994137;28;20457;-93
2023/03/17 07:54:28;;;;;;;4.75;2.67;;;;;;;6.83;58.89;97917.75;5030737;28;20104;-95
2023/03/17 07:56:55;;;;;;;4.55;2.63;;;;;;;6.88;58.62;97889.38;5005973;23;20051;-91
2023/03/17 07:59:22;;;;;;;3.40;2.58;;;;;;;7.12;55.80;97906.50;4936974;29;20043;-93
2023/03/17 08:01:49;;;;;;;5.22;2.92;;;;;;;7.42;55.25;97915.91;4935013;29;20048;-92
2023/03/17 08:04:15;;;;;;;3.80;2.50;;;;;;;7.46;54.09;97900.69;4939127;29;20059;-91
2023/03/17 08:06:42;;;;;;;6.40;3.75;;;;;;;7.67;55.87;97902.50;4966844;28;20051;-90
2023/03/17 08:09:10;;;;;;;4.63;2.50;;;;;;;7.63;54.34;97883.81;4951196;29;20047;-90
2023/03/17 08:11:52;;;;;;;2.90;2.17;;;;;;;7.99;54.21;97901.22;4957420;28;20059;-93
2023/03/17 08:14:18;;;;;;;3.58;2.38;;;;;;;8.15;54.37;97921.84;4942213;29;20058;-93
2023/03/17 08:16:45;;;;;;;6.75;3.63;;;;;;;8.26;52.33;97915.28;4954153;29;20110;-90
2023/03/17 08:19:11;;;;;;;4.45;2.58;;;;;;;8.32;52.49;97896.25;4951715;29;20411;-88
2023/03/17 08:21:37;;;;;;;8.93;2.90;;;;;;;8.28;51.66;97872.31;4960006;28;20039;-88
2023/03/17 08:24:07;;;;;;;4.28;2.60;;;;;;;8.46;50.04;97891.97;4954770;29;20058;-90
2023/03/17 08:26:33;;;;;;;3.30;2.20;;;;;;;8.61;50.47;97886.63;4960460;28;20052;-91
2023/03/17 08:29:00;;;;;;;3.35;2.28;;;;;;;8.70;50.78;97893.34;4963250;28;20075;-90
2023/03/17 08:31:26;;;;;;;3.10;2.33;;;;;;;8.85;50.59;97894.81;4944195;29;20071;-89
2023/03/17 08:33:55;;;;;;;2.72;1.80;;;;;;;9.09;49.89;97903.19;4946113;29;20051;-92
2023/03/17 08:36:22;;;;;;;4.22;2.00;;;;;;;9.24;50.43;97897.81;4955577;28;20035;-90
2023/03/17 08:38:49;;;;;;;5.53;3.38;;;;;;;9.21;48.64;97899.00;4953611;29;20034;-90
2023/03/17 08:41:21;;;;;;;4.13;2.35;;;;;;;9.19;48.52;97877.47;4954156;29;20793;-91
2023/03/17 08:43:47;;;;;;;4.90;2.50;;;;;;;9.41;48.60;97890.41;4963721;28;20419;-92
2023/03/17 08:46:19;;;;;;;4.50;2.50;;;;;;;9.36;49.70;97878.75;4931351;29;20055;-90
2023/03/17 08:48:48;;;;;;;5.30;2.22;;;;;;;9.43;48.16;97876.13;4964872;28;20039;-90
2023/03/17 08:51:15;;;;;;;2.85;2.05;;;;;;;9.64;47.79;97888.25;4949352;29;20730;-90
2023/03/17 08:53:42;;;;;;;3.05;1.83;;;;;;;9.76;49.44;97883.25;4939896;29;20039;-94
2023/03/17 08:56:08;;;;;;;3.10;2.05;;;;;;;9.86;49.00;97867.97;4946746;29;20110;-91
2023/03/17 08:58:43;;;;;;;2.38;1.90;;;;;;;10.12;49.09;97885.50;4956082;29;20075;-92
2023/03/17 09:01:10;;;;;;;2.05;1.80;;;;;;;10.10;48.11;97866.56;4958316;28;20043;-94
2023/03/17 09:03:38;;;;;;;2.10;1.70;;;;;;;10.34;47.20;97876.44;4970816;28;20062;-89
2023/03/17 09:06:06;;;;;;;2.88;1.65;;;;;;;10.51;47.40;97870.78;4952794;29;20062;-91
2023/03/17 09:08:34;;;;;;;4.28;1.70;;;;;;;10.62;45.88;97872.78;4961030;28;20079;-89
2023/03/17 09:11:04;;;;;;;3.67;1.80;;;;;;;10.78;46.86;97869.69;4938533;29;20483;-91
2023/03/17 09:13:32;;;;;;;4.95;1.60;;;;;;;10.99;47.40;97869.44;4951841;29;20038;-89
2023/03/17 09:15:58;;;;;;;1.92;1.67;;;;;;;11.13;46.54;97851.03;4946767;29;20052;-88
2023/03/17 09:18:30;;;;;;;4.07;1.83;;;;;;;11.23;45.86;97869.75;4938008;29;20031;-89
2023/03/17 09:20:56;;;;;;;3.22;2.28;;;;;;;11.21;44.67;97858.63;4954523;29;20039;-88
2023/03/17 09:23:23;;;;;;;3.33;2.33;;;;;;;11.20;44.33;97852.59;4966501;28;20055;-89
2023/03/17 09:25:51;;;;;;;2.13;1.80;;;;;;;11.45;44.91;97868.41;4956727;28;20051;-88
2023/03/17 09:28:17;;;;;;;3.50;1.85;;;;;;;11.62;45.36;97866.09;4941411;29;20051;-91
2023/03/17 09:30:45;;;;;;;4.13;1.88;;;;;;;11.79;45.11;97863.78;4955052;29;20086;-90
2023/03/17 09:33:13;;;;;;;3.22;1.77;;;;;;;11.80;43.88;97845.16;4966769;28;20043;-88
2023/03/17 09:35:39;;;;;;;3.03;1.85;;;;;;;11.89;43.20;97842.31;4953175;28;20036;-90
2023/03/17 09:38:08;;;;;;;2.28;1.70;;;;;;;11.92;42.80;97842.69;4951756;29;20131;-89
2023/03/17 09:41:12;;;;;;;1.90;1.50;;;;;;;12.19;43.01;97858.25;4940986;29;20039;-90
2023/03/17 09:44:29;;;;;;;2.92;1.60;;;;;;;12.26;42.97;97854.53;4950298;29;20122;-90
2023/03/17 09:47:37;;;;;;;1.98;1.48;;;;;;;12.47;43.39;97848.06;4924948;29;20122;-94
2023/03/17 09:50:17;;;;;;;1.92;1.73;;;;;;;12.50;43.37;97845.00;4939531;29;20491;-91
2023/03/17 09:52:51;;;;;;;2.67;1.83;;;;;;;12.54;43.17;97851.47;4960028;29;20050;-92
2023/03/17 09:55:27;;;;;;;2.35;1.80;;;;;;;12.59;43.30;97817.41;4978768;28;20099;-92
2023/03/17 09:57:57;;;;;;;2.15;1.52;;;;;;;12.92;42.29;97858.34;4988804;28;20057;-92
2023/03/17 10:00:28;;;;;;;8.20;1.95;;;;;;;13.04;41.57;97851.31;4986767;28;20494;-90
2023/03/17 10:02:58;;;;;;;2.60;2.15;;;;;;;13.26;41.39;97866.69;4994295;28;20034;-92
2023/03/17 10:05:30;;;;;;;2.75;1.90;;;;;;;13.23;41.51;97838.94;4986172;28;20046;-93
2023/03/17 10:08:30;;;;;;;3.97;2.35;;;;;;;13.48;41.85;97849.34;4982408;28;20061;-93
2023/03/17 10:11:23;;;;;;;3.00;2.30;;;;;;;13.43;41.69;97857.09;4980519;28;20030;-93
2023/03/17 10:14:14;;;;;;;2.70;1.98;;;;;;;13.36;41.30;97851.94;4968309;28;20030;-94
2023/03/17 10:17:11;;;;;;;7.50;2.45;;;;;;;13.08;40.14;97847.22;4955446;28;20398;-93
2023/03/17 10:20:01;;;;;;;3.83;2.22;;;;;;;12.85;42.33;97841.81;4998021;28;20038;-94
2023/03/17 10:22:45;;;;;;;3.92;2.15;;;;;;;12.87;42.75;97834.50;4963462;28;20035;-92
2023/03/17 10:25:22;;;;;;;2.53;2.15;;;;;;;13.15;43.18;97839.22;4974762;28;20047;-93
2023/03/17 10:28:00;;;;;;;3.47;2.20;;;;;;;13.06;40.85;97833.44;4974447;28;20077;-92
2023/03/17 10:30:34;;;;;;;4.25;2.10;;;;;;;13.11;41.41;97846.75;4973380;28;20797;-93
2023/03/17 10:33:21;;;;;;;2.83;1.83;;;;;;;13.06;42.28;97830.81;4981342;28;20032;-92
2023/03/17 10:35:47;;;;;;;3.60;1.83;;;;;;;13.33;43.18;97823.41;4963059;28;20042;-92
2023/03/17 10:38:22;;;;;;;3.90;2.20;;;;;;;13.50;41.11;97834.13;4975202;28;20046;-90
2023/03/17 10:41:05;;;;;;;4.20;1.88;;;;;;;13.55;42.73;97823.69;4990928;28;20038;-91
2023/03/17 10:43:45;;;;;;;2.55;1.70;;;;;;;13.92;42.40;97837.56;4978629;28;20034;-92
2023/03/17 10:46:24;;;;;;;2.72;1.70;;;;;;;14.05;41.82;97817.28;4976026;28;20038;-92
2023/03/17 10:48:56;;;;;;;4.00;1.85;;;;;;;14.19;41.18;97806.25;4975008;28;20039;-91
2023/03/17 10:51:36;;;;;;;1.60;1.50;;;;;;;14.49;40.71;97808.00;4950894;28;20494;-90
2023/03/17 10:54:10;;;;;;;1.70;1.55;;;;;;;14.57;40.67;97812.09;4943961;28;20039;-92
2023/03/17 10:56:41;;;;;;;3.58;2.10;;;;;;;14.65;41.17;97803.84;4977593;28;20046;-91
2023/03/17 10:59:26;;;;;;;;;;;;;;;14.78;40.62;97798.31;4977990;28;20641;-92
2023/03/17 11:01:58;;;;;;;2.03;1.45;;;;;;;14.87;40.49;97793.44;4977409;28;19940;-91
2023/03/17 11:04:41;;;;;;;3.40;1.88;;;;;;;15.08;39.58;97779.63;4969920;28;20102;-92
2023/03/17 11:07:16;;;;;;;2.15;1.80;;;;;;;15.22;40.40;97788.84;4976346;28;20069;-92
2023/03/17 11:09:47;;;;;;;1.77;1.67;;;;;;;15.39;38.26;97793.38;4979402;28;20027;-91
2023/03/17 11:12:28;;;;;;;2.72;1.60;;;;;;;15.30;39.23;97773.69;4977796;28;20053;-90
2023/03/17 11:15:04;;;;;;;;;;;;;;;15.61;37.52;97791.66;4980935;28;20089;-92
2023/03/17 11:17:56;;;;;;;1.77;1.67;;;;;;;15.57;37.08;97785.22;4963236;28;19910;-93
2023/03/17 11:20:49;;;;;;;2.15;1.25;;;;;;;15.79;36.91;97778.22;4975264;28;20066;-92
2023/03/17 11:23:45;;;;;;;2.25;1.48;;;;;;;16.05;38.34;97786.53;4978413;28;20089;-92
2023/03/17 11:26:45;;;;;;;2.05;1.30;;;;;;;16.15;36.07;97765.53;4969671;28;20060;-91
2023/03/17 11:29:31;;;;;;;4.00;1.47;;;;;;;16.56;38.05;97766.09;4964413;28;20569;-92
2023/03/17 11:32:24;;;;;;;2.17;1.35;;;;;;;16.49;37.07;97753.03;4978468;28;20469;-93
2023/03/17 11:35:02;;;;;;;3.88;1.60;;;;;;;16.73;35.87;97758.91;4978404;28;20045;-93
2023/03/17 11:37:57;;;;;;;2.45;1.50;;;;;;;16.82;36.84;97743.38;4954337;28;20034;-92
2023/03/17 11:40:44;;;;;;;2.03;1.30;;;;;;;17.04;34.47;97740.72;4966509;28;20121;-92
2023/03/17 11:43:42;;;;;;;2.08;1.40;;;;;;;17.27;35.41;97753.66;4974648;28;20046;-93
2023/03/17 11:46:42;;;;;;;2.97;1.23;;;;;;;17.33;35.66;97743.88;4987580;28;20109;-92
2023/03/17 11:49:25;;;;;;;1.55;1.33;;;;;;;17.61;33.66;97746.25;4962149;28;20046;-92
2023/03/17 11:52:27;;;;;;;1.95;1.10;;;;;;;17.72;33.53;97736.56;4991596;28;20065;-91
2023/03/17 11:55:23;;;;;;;12.70;1.90;;;;;;;17.52;33.01;97731.88;4989838;28;20548;-92
2023/03/17 11:58:04;;;;;;;1.58;1.10;;;;;;;17.59;33.49;97742.28;4989654;28;20062;-92
2023/03/17 12:00:44;;;;;;;2.38;1.20;;;;;;;17.61;32.96;97734.84;4975671;28;20031;-92
2023/03/17 12:03:35;;;;;;;1.85;1.13;;;;;;;17.31;32.67;97720.28;4989133;28;20105;-93
2023/03/17 12:06:14;;;;;;;2.75;1.10;;;;;;;17.23;33.17;97734.00;4973842;28;20418;-93